sensor_id;sensor_type;location;lat;lon;timestamp;pressure;altitude;pressure_sealevel;temperature;humidity
23643;BME280;11998;55.788;37.572;2023-02-15T00:00:46;99368.81;;;-0.70;100.00
23643;BME280;11998;55.788;37.572;2023-02-15T00:01:48;99369.56;;;-0.75;100.00
23643;BME280;11998;55.788;37.572;2023-02-15T00:02:49;99374.84;;;-0.72;100.00
23643;BME280;11998;55.788;37.572;2023-02-15T00:03:50;99374.84;;;-0.72;100.00
23643;BME280;11998;55.788;37.572;2023-02-15T00:04:50;99361.81;;;-0.74;100.00
23643;BME280;11998;55.788;37.572;2023-02-15T00:05:51;99370.50;;;-0.72;100.00
23643;BME280;11998;55.788;37.572;2023-02-15T00:06:51;99378.34;;;-0.70;100.00
23643;BME280;11998;55.788;37.572;2023-02-15T00:07:52;99386.28;;;-0.63;100.00
23643;BME280;11998;55.788;37.572;2023-02-15T00:08:54;99369.94;;;-0.57;100.00
23643;BME280;11998;55.788;37.572;2023-02-15T00:09:54;99370.53;;;-0.70;100.00
23643;BME280;11998;55.788;37.572;2023-02-15T00:11:10;99363.69;;;-0.65;100.00
23643;BME280;11998;55.788;37.572;2023-02-15T00:12:10;99366.34;;;-0.62;100.00
23643;BME280;11998;55.788;37.572;2023-02-15T00:13:11;99376.53;;;-0.74;100.00
23643;BME280;11998;55.788;37.572;2023-02-15T00:14:19;99367.94;;;-0.70;100.00
23643;BME280;11998;55.788;37.572;2023-02-15T00:15:20;99380.06;;;-0.71;100.00
23643;BME280;11998;55.788;37.572;2023-02-15T00:16:20;99369.66;;;-0.71;100.00
23643;BME280;11998;55.788;37.572;2023-02-15T00:17:21;99377.22;;;-0.81;100.00
23643;BME280;11998;55.788;37.572;2023-02-15T00:18:21;99378.06;;;-0.82;100.00
23643;BME280;11998;55.788;37.572;2023-02-15T00:19:22;99376.38;;;-0.80;100.00
23643;BME280;11998;55.788;37.572;2023-02-15T00:20:22;99384.13;;;-0.83;100.00
23643;BME280;11998;55.788;37.572;2023-02-15T00:21:23;99386.94;;;-0.74;100.00
23643;BME280;11998;55.788;37.572;2023-02-15T00:22:25;99381.59;;;-0.80;100.00
23643;BME280;11998;55.788;37.572;2023-02-15T00:23:26;99366.81;;;-0.83;100.00
23643;BME280;11998;55.788;37.572;2023-02-15T00:24:26;99376.38;;;-0.80;100.00
23643;BME280;11998;55.788;37.572;2023-02-15T00:25:27;99386.00;;;-0.76;100.00
23643;BME280;11998;55.788;37.572;2023-02-15T00:26:28;99382.44;;;-0.81;100.00
23643;BME280;11998;55.788;37.572;2023-02-15T00:27:28;99366.03;;;-0.77;100.00
23643;BME280;11998;55.788;37.572;2023-02-15T00:28:30;99371.19;;;-0.80;100.00
23643;BME280;11998;55.788;37.572;2023-02-15T00:29:30;99379.03;;;-0.77;100.00
23643;BME280;11998;55.788;37.572;2023-02-15T00:30:31;99383.59;;;-0.67;100.00
23643;BME280;11998;55.788;37.572;2023-02-15T00:31:32;99367.94;;;-0.70;100.00
23643;BME280;11998;55.788;37.572;2023-02-15T00:32:33;99374.94;;;-0.66;100.00
23643;BME280;11998;55.788;37.572;2023-02-15T00:33:35;99378.44;;;-0.64;100.00
23643;BME280;11998;55.788;37.572;2023-02-15T00:34:35;99379.34;;;-0.64;100.00
23643;BME280;11998;55.788;37.572;2023-02-15T00:35:36;99378.34;;;-0.70;100.00
23643;BME280;11998;55.788;37.572;2023-02-15T00:36:36;99379.34;;;-0.64;100.00
23643;BME280;11998;55.788;37.572;2023-02-15T00:37:37;99380.22;;;-0.63;100.00
23643;BME280;11998;55.788;37.572;2023-02-15T00:38:38;99378.59;;;-0.58;100.00
23643;BME280;11998;55.788;37.572;2023-02-15T00:39:38;99369.94;;;-0.57;100.00
23643;BME280;11998;55.788;37.572;2023-02-15T00:40:39;99385.41;;;-0.63;100.00
23643;BME280;11998;55.788;37.572;2023-02-15T00:41:39;99376.81;;;-0.61;100.00
23643;BME280;11998;55.788;37.572;2023-02-15T00:42:40;99379.38;;;-0.62;100.00
23643;BME280;11998;55.788;37.572;2023-02-15T00:43:41;99377.50;;;-0.69;100.00
23643;BME280;11998;55.788;37.572;2023-02-15T00:44:41;99379.25;;;-0.68;100.00
23643;BME280;11998;55.788;37.572;2023-02-15T00:45:42;99381.91;;;-0.65;100.00
23643;BME280;11998;55.788;37.572;2023-02-15T00:46:42;99375.84;;;-0.64;100.00
23643;BME280;11998;55.788;37.572;2023-02-15T00:47:43;99380.16;;;-0.66;100.00
23643;BME280;11998;55.788;37.572;2023-02-15T00:48:43;99378.44;;;-0.64;100.00
23643;BME280;11998;55.788;37.572;2023-02-15T00:49:44;99390.59;;;-0.63;100.00
23643;BME280;11998;55.788;37.572;2023-02-15T00:50:46;99380.22;;;-0.63;100.00
23643;BME280;11998;55.788;37.572;2023-02-15T00:51:46;99387.69;;;-0.78;100.00
23643;BME280;11998;55.788;37.572;2023-02-15T00:52:47;99386.03;;;-0.75;100.00
23643;BME280;11998;55.788;37.572;2023-02-15T00:53:48;99382.50;;;-0.78;100.00
23643;BME280;11998;55.788;37.572;2023-02-15T00:54:48;99385.16;;;-0.75;100.00
23643;BME280;11998;55.788;37.572;2023-02-15T00:55:49;99393.13;;;-0.68;100.00
23643;BME280;11998;55.788;37.572;2023-02-15T00:56:49;99391.41;;;-0.67;100.00
23643;BME280;11998;55.788;37.572;2023-02-15T00:57:50;99389.75;;;-0.62;100.00
23643;BME280;11998;55.788;37.572;2023-02-15T00:58:50;99383.75;;;-0.61;100.00
23643;BME280;11998;55.788;37.572;2023-02-15T00:59:51;99385.41;;;-0.63;100.00
23643;BME280;11998;55.788;37.572;2023-02-15T01:00:52;99385.41;;;-0.63;100.00
23643;BME280;11998;55.788;37.572;2023-02-15T01:01:53;99388.84;;;-0.66;100.00
23643;BME280;11998;55.788;37.572;2023-02-15T01:02:53;99392.25;;;-0.68;100.00
23643;BME280;11998;55.788;37.572;2023-02-15T01:03:54;99380.03;;;-0.72;100.00
23643;BME280;11998;55.788;37.572;2023-02-15T01:04:54;99387.69;;;-0.78;100.00
23643;BME280;11998;55.788;37.572;2023-02-15T01:05:55;99387.63;;;-0.81;100.00
23643;BME280;11998;55.788;37.572;2023-02-15T01:06:55;99394.50;;;-0.85;100.00
23643;BME280;11998;55.788;37.572;2023-02-15T01:07:56;99398.81;;;-0.85;100.00
23643;BME280;11998;55.788;37.572;2023-02-15T01:08:57;99397.22;;;-0.79;100.00
23643;BME280;11998;55.788;37.572;2023-02-15T01:09:57;99391.97;;;-0.80;100.00
23643;BME280;11998;55.788;37.572;2023-02-15T01:11:10;99395.28;;;-0.88;100.00
23643;BME280;11998;55.788;37.572;2023-02-15T01:12:11;99388.47;;;-0.82;100.00
23643;BME280;11998;55.788;37.572;2023-02-15T01:13:11;99390.03;;;-0.91;100.00
23643;BME280;11998;55.788;37.572;2023-02-15T01:14:12;99392.56;;;-0.94;100.00
23643;BME280;11998;55.788;37.572;2023-02-15T01:15:13;99397.09;;;-0.85;100.00
23643;BME280;11998;55.788;37.572;2023-02-15T01:16:14;99391.06;;;-0.84;100.00
23643;BME280;11998;55.788;37.572;2023-02-15T01:17:14;99397.13;;;-0.83;100.00
23643;BME280;11998;55.788;37.572;2023-02-15T01:18:15;99392.03;;;-0.77;100.00
23643;BME280;11998;55.788;37.572;2023-02-15T01:19:15;99386.78;;;-0.80;100.00
23643;BME280;11998;55.788;37.572;2023-02-15T01:20:16;99398.09;;;-0.78;100.00
23643;BME280;11998;55.788;37.572;2023-02-15T01:21:19;99398.06;;;-0.80;100.00
23643;BME280;11998;55.788;37.572;2023-02-15T01:22:20;99399.97;;;-0.73;100.00
23643;BME280;11998;55.788;37.572;2023-02-15T01:23:21;99397.16;;;-0.82;100.00
23643;BME280;11998;55.788;37.572;2023-02-15T01:24:22;99383.94;;;-0.91;100.00
23643;BME280;11998;55.788;37.572;2023-02-15T01:25:23;99398.81;;;-0.85;100.00
23643;BME280;11998;55.788;37.572;2023-02-15T01:26:24;99402.13;;;-0.93;100.00
23643;BME280;11998;55.788;37.572;2023-02-15T01:27:25;99403.16;;;-0.84;100.00
23643;BME280;11998;55.788;37.572;2023-02-15T01:28:26;99398.09;;;-0.78;100.00
23643;BME280;11998;55.788;37.572;2023-02-15T01:29:26;99394.72;;;-0.74;100.00
23643;BME280;11998;55.788;37.572;2023-02-15T01:30:26;99386.94;;;-0.74;100.00
23643;BME280;11998;55.788;37.572;2023-02-15T01:31:27;99395.53;;;-0.75;100.00
23643;BME280;11998;55.788;37.572;2023-02-15T01:32:28;99404.13;;;-0.79;100.00
23643;BME280;11998;55.788;37.572;2023-02-15T01:33:28;99397.25;;;-0.77;100.00
23643;BME280;11998;55.788;37.572;2023-02-15T01:34:29;99400.88;;;-0.71;100.00
23643;BME280;11998;55.788;37.572;2023-02-15T01:35:30;99402.53;;;-0.74;100.00
23643;BME280;11998;55.788;37.572;2023-02-15T01:36:33;99395.63;;;-0.72;100.00
23643;BME280;11998;55.788;37.572;2023-02-15T01:37:35;99397.34;;;-0.74;100.00
23643;BME280;11998;55.788;37.572;2023-02-15T01:38:35;99399.00;;;-0.76;100.00
23643;BME280;11998;55.788;37.572;2023-02-15T01:39:36;99397.22;;;-0.79;100.00
23643;BME280;11998;55.788;37.572;2023-02-15T01:40:37;99405.88;;;-0.78;100.00
23643;BME280;11998;55.788;37.572;2023-02-15T01:41:39;99407.38;;;-0.90;100.00
23643;BME280;11998;55.788;37.572;2023-02-15T01:42:39;99405.75;;;-0.86;100.00
23643;BME280;11998;55.788;37.572;2023-02-15T01:43:41;99398.81;;;-0.85;100.00
23643;BME280;11998;55.788;37.572;2023-02-15T01:45:49;99395.53;;;-0.75;100.00
23643;BME280;11998;55.788;37.572;2023-02-15T01:46:52;99405.19;;;-0.71;100.00
23643;BME280;11998;55.788;37.572;2023-02-15T01:49:19;99401.81;;;-0.67;100.00
23643;BME280;11998;55.788;37.572;2023-02-15T01:50:32;99399.09;;;-0.73;100.00
23643;BME280;11998;55.788;37.572;2023-02-15T01:51:34;99406.06;;;-0.71;100.00
23643;BME280;11998;55.788;37.572;2023-02-15T01:52:42;99405.88;;;-0.78;100.00
23643;BME280;11998;55.788;37.572;2023-02-15T01:53:52;99392.03;;;-0.77;100.00
23643;BME280;11998;55.788;37.572;2023-02-15T01:54:54;99411.06;;;-0.80;100.00
23643;BME280;11998;55.788;37.572;2023-02-15T01:56:00;99407.63;;;-0.79;100.00
23643;BME280;11998;55.788;37.572;2023-02-15T01:57:06;99412.94;;;-0.74;100.00
23643;BME280;11998;55.788;37.572;2023-02-15T01:58:07;99410.28;;;-0.76;100.00
23643;BME280;11998;55.788;37.572;2023-02-15T01:59:12;99407.78;;;-0.71;100.00
23643;BME280;11998;55.788;37.572;2023-02-15T02:00:14;99396.28;;;-0.82;100.00
23643;BME280;11998;55.788;37.572;2023-02-15T02:01:17;99394.47;;;-0.86;100.00
23643;BME280;11998;55.788;37.572;2023-02-15T02:02:18;99410.53;;;-1.03;100.00
23643;BME280;11998;55.788;37.572;2023-02-15T02:05:43;99416.75;;;-0.98;100.00
23643;BME280;11998;55.788;37.572;2023-02-15T02:06:46;99396.91;;;-0.93;100.00
23643;BME280;11998;55.788;37.572;2023-02-15T02:07:50;99370.81;;;-0.99;100.00
23643;BME280;11998;55.788;37.572;2023-02-15T02:08:53;99407.91;;;-1.04;100.00
23643;BME280;11998;55.788;37.572;2023-02-15T02:09:55;99413.16;;;-1.01;100.00
23643;BME280;11998;55.788;37.572;2023-02-15T02:10:55;99415.06;;;-0.94;100.00
23643;BME280;11998;55.788;37.572;2023-02-15T02:11:56;99398.66;;;-0.92;100.00
23643;BME280;11998;55.788;37.572;2023-02-15T02:13:03;99389.91;;;-0.97;100.00
23643;BME280;11998;55.788;37.572;2023-02-15T02:14:05;99406.41;;;-0.95;100.00
23643;BME280;11998;55.788;37.572;2023-02-15T02:15:06;99416.00;;;-0.91;100.00
23643;BME280;11998;55.788;37.572;2023-02-15T02:16:19;99421.22;;;-0.91;100.00
23643;BME280;11998;55.788;37.572;2023-02-15T02:17:37;99425.47;;;-0.94;100.00
23643;BME280;11998;55.788;37.572;2023-02-15T02:19:32;99404.72;;;-0.93;100.00
23643;BME280;11998;55.788;37.572;2023-02-15T02:23:15;99408.94;;;-0.98;100.00
23643;BME280;11998;55.788;37.572;2023-02-15T02:29:22;99407.19;;;-0.99;100.00
23643;BME280;11998;55.788;37.572;2023-02-15T02:34:47;99417.78;;;-0.90;100.00
23643;BME280;11998;55.788;37.572;2023-02-15T02:36:00;99414.03;;;-1.01;100.00
23643;BME280;11998;55.788;37.572;2023-02-15T02:37:17;99420.81;;;-1.09;100.00
23643;BME280;11998;55.788;37.572;2023-02-15T02:38:42;99425.28;;;-1.02;100.00
23643;BME280;11998;55.788;37.572;2023-02-15T02:40:03;99432.13;;;-1.05;100.00
23643;BME280;11998;55.788;37.572;2023-02-15T02:42:54;99428.03;;;-0.96;100.00
23643;BME280;11998;55.788;37.572;2023-02-15T02:44:24;99426.34;;;-0.94;100.00
23643;BME280;11998;55.788;37.572;2023-02-15T02:45:40;99422.78;;;-0.99;100.00
23643;BME280;11998;55.788;37.572;2023-02-15T02:47:09;99419.13;;;-1.07;100.00
23643;BME280;11998;55.788;37.572;2023-02-15T02:48:15;99419.91;;;-1.11;100.00
23643;BME280;11998;55.788;37.572;2023-02-15T02:49:35;99435.50;;;-1.11;100.00
23643;BME280;11998;55.788;37.572;2023-02-15T02:50:39;99435.38;;;-1.14;100.00
23643;BME280;11998;55.788;37.572;2023-02-15T02:51:40;99437.97;;;-1.15;100.00
23643;BME280;11998;55.788;37.572;2023-02-15T02:53:41;99429.28;;;-1.16;100.00
23643;BME280;11998;55.788;37.572;2023-02-15T02:54:41;99434.34;;;-1.22;100.00
23643;BME280;11998;55.788;37.572;2023-02-15T02:56:46;99432.44;;;-1.29;100.00
23643;BME280;11998;55.788;37.572;2023-02-15T02:57:15;99437.50;;;-1.35;100.00
23643;BME280;11998;55.788;37.572;2023-02-15T02:58:21;99440.94;;;-1.36;100.00
23643;BME280;11998;55.788;37.572;2023-02-15T02:59:31;99437.63;;;-1.29;100.00
23643;BME280;11998;55.788;37.572;2023-02-15T03:00:40;99448.19;;;-1.23;100.00
23643;BME280;11998;55.788;37.572;2023-02-15T03:01:48;99443.66;;;-1.30;100.00
23643;BME280;11998;55.788;37.572;2023-02-15T03:02:58;99443.81;;;-1.24;100.00
23643;BME280;11998;55.788;37.572;2023-02-15T03:04:15;99447.31;;;-1.24;100.00
23643;BME280;11998;55.788;37.572;2023-02-15T03:05:21;99444.81;;;-1.19;100.00
23643;BME280;11998;55.788;37.572;2023-02-15T03:07:32;99436.13;;;-1.20;100.00
23643;BME280;11998;55.788;37.572;2023-02-15T03:08:40;99437.78;;;-1.23;100.00
23643;BME280;11998;55.788;37.572;2023-02-15T03:09:45;99446.41;;;-1.24;100.00
23643;BME280;11998;55.788;37.572;2023-02-15T03:10:54;99444.00;;;-1.16;100.00
23643;BME280;11998;55.788;37.572;2023-02-15T03:11:55;99456.88;;;-1.21;100.00
23643;BME280;11998;55.788;37.572;2023-02-15T03:12:56;99453.59;;;-1.14;100.00
23643;BME280;11998;55.788;37.572;2023-02-15T03:13:57;99451.16;;;-1.08;100.00
23643;BME280;11998;55.788;37.572;2023-02-15T03:15:05;99452.94;;;-1.05;100.00
23643;BME280;11998;55.788;37.572;2023-02-15T03:16:08;99454.50;;;-1.12;100.00
23643;BME280;11998;55.788;37.572;2023-02-15T03:17:31;99451.72;;;-1.20;100.00
23643;BME280;11998;55.788;37.572;2023-02-15T03:18:36;99441.38;;;-1.18;100.00
23643;BME280;11998;55.788;37.572;2023-02-15T03:19:38;99453.50;;;-1.17;100.00
23643;BME280;11998;55.788;37.572;2023-02-15T03:20:39;99456.22;;;-1.12;100.00
23643;BME280;11998;55.788;37.572;2023-02-15T03:21:44;99450.25;;;-1.10;100.00
23643;BME280;11998;55.788;37.572;2023-02-15T03:23:01;99456.16;;;-1.15;100.00
23643;BME280;11998;55.788;37.572;2023-02-15T03:24:10;99465.72;;;-1.13;100.00
23643;BME280;11998;55.788;37.572;2023-02-15T03:25:27;99456.88;;;-1.21;100.00
23643;BME280;11998;55.788;37.572;2023-02-15T03:26:32;99466.38;;;-1.23;100.00
23643;BME280;11998;55.788;37.572;2023-02-15T03:27:38;99449.94;;;-1.22;100.00
23643;BME280;11998;55.788;37.572;2023-02-15T03:28:43;99458.78;;;-1.14;100.00
23643;BME280;11998;55.788;37.572;2023-02-15T03:29:48;99464.84;;;-1.13;100.00
23643;BME280;11998;55.788;37.572;2023-02-15T03:30:54;99470.84;;;-1.16;100.00
23643;BME280;11998;55.788;37.572;2023-02-15T03:32:00;99471.69;;;-1.17;100.00
23643;BME280;11998;55.788;37.572;2023-02-15T03:33:02;99462.16;;;-1.18;100.00
23643;BME280;11998;55.788;37.572;2023-02-15T03:34:09;99461.25;;;-1.20;100.00
23643;BME280;11998;55.788;37.572;2023-02-15T03:35:10;99463.84;;;-1.20;100.00
23643;BME280;11998;55.788;37.572;2023-02-15T03:36:58;99465.53;;;-1.22;100.00
23643;BME280;11998;55.788;37.572;2023-02-15T03:37:42;99468.13;;;-1.22;100.00
23643;BME280;11998;55.788;37.572;2023-02-15T03:40:35;99466.31;;;-1.25;100.00
23643;BME280;11998;55.788;37.572;2023-02-15T03:43:30;99457.03;;;-1.15;100.00
23643;BME280;11998;55.788;37.572;2023-02-15T03:44:49;99465.59;;;-1.19;100.00
23643;BME280;11998;55.788;37.572;2023-02-15T03:45:55;99455.97;;;-1.23;100.00
23643;BME280;11998;55.788;37.572;2023-02-15T03:47:04;99468.81;;;-1.29;100.00
23643;BME280;11998;55.788;37.572;2023-02-15T03:48:06;99464.56;;;-1.26;100.00
23643;BME280;11998;55.788;37.572;2023-02-15T03:49:18;99457.72;;;-1.22;100.00
23643;BME280;11998;55.788;37.572;2023-02-15T03:50:29;99460.16;;;-1.28;100.00
23643;BME280;11998;55.788;37.572;2023-02-15T03:51:51;99463.59;;;-1.29;100.00
23643;BME280;11998;55.788;37.572;2023-02-15T03:52:55;99461.63;;;-1.39;100.00
23643;BME280;11998;55.788;37.572;2023-02-15T03:53:58;99456.53;;;-1.36;100.00
23643;BME280;11998;55.788;37.572;2023-02-15T03:55:00;99462.63;;;-1.34;100.00
23643;BME280;11998;55.788;37.572;2023-02-15T03:56:00;99463.28;;;-1.41;100.00
23643;BME280;11998;55.788;37.572;2023-02-15T03:57:01;99458.34;;;-1.32;100.00
23643;BME280;11998;55.788;37.572;2023-02-15T03:58:21;99467.13;;;-1.27;100.00
23643;BME280;11998;55.788;37.572;2023-02-15T03:59:40;99461.06;;;-1.26;100.00
23643;BME280;11998;55.788;37.572;2023-02-15T04:01:09;99464.47;;;-1.29;100.00
23643;BME280;11998;55.788;37.572;2023-02-15T04:02:32;99469.50;;;-1.36;100.00
23643;BME280;11998;55.788;37.572;2023-02-15T04:03:40;99467.00;;;-1.32;100.00
23643;BME280;11998;55.788;37.572;2023-02-15T04:04:47;99465.13;;;-1.37;100.00
23643;BME280;11998;55.788;37.572;2023-02-15T04:05:47;99468.66;;;-1.35;100.00
23643;BME280;11998;55.788;37.572;2023-02-15T04:06:48;99460.03;;;-1.34;100.00
23643;BME280;11998;55.788;37.572;2023-02-15T04:07:49;99466.16;;;-1.31;100.00
23643;BME280;11998;55.788;37.572;2023-02-15T04:08:49;99460.09;;;-1.31;100.00
23643;BME280;11998;55.788;37.572;2023-02-15T04:10:08;99463.53;;;-1.32;100.00
23643;BME280;11998;55.788;37.572;2023-02-15T04:11:27;99452.97;;;-1.38;100.00
23643;BME280;11998;55.788;37.572;2023-02-15T04:12:27;99463.22;;;-1.44;100.00
23643;BME280;11998;55.788;37.572;2023-02-15T04:13:32;99463.16;;;-1.48;100.00
23643;BME280;11998;55.788;37.572;2023-02-15T04:14:33;99447.56;;;-1.48;100.00
23643;BME280;11998;55.788;37.572;2023-02-15T04:15:53;99471.69;;;-1.52;100.00
23643;BME280;11998;55.788;37.572;2023-02-15T04:17:07;99465.94;;;-1.73;100.00
23643;BME280;11998;55.788;37.572;2023-02-15T04:18:08;99464.34;;;-1.68;100.00
23643;BME280;11998;55.788;37.572;2023-02-15T04:19:08;99466.09;;;-1.67;100.00
23643;BME280;11998;55.788;37.572;2023-02-15T04:20:27;99454.22;;;-1.59;100.00
23643;BME280;11998;55.788;37.572;2023-02-15T04:21:47;99467.16;;;-1.60;100.00
23643;BME280;11998;55.788;37.572;2023-02-15T04:23:07;99462.91;;;-1.57;100.00
23643;BME280;11998;55.788;37.572;2023-02-15T04:24:26;99465.19;;;-1.69;100.00
23643;BME280;11998;55.788;37.572;2023-02-15T04:25:45;99457.53;;;-1.63;100.00
23643;BME280;11998;55.788;37.572;2023-02-15T04:26:46;99467.25;;;-1.56;100.00
23643;BME280;11998;55.788;37.572;2023-02-15T04:27:52;99458.63;;;-1.55;100.00
23643;BME280;11998;55.788;37.572;2023-02-15T04:28:53;99466.41;;;-1.55;100.00
23643;BME280;11998;55.788;37.572;2023-02-15T04:29:53;99464.66;;;-1.56;100.00
23643;BME280;11998;55.788;37.572;2023-02-15T04:30:54;99467.16;;;-1.60;100.00
23643;BME280;11998;55.788;37.572;2023-02-15T04:31:56;99467.19;;;-1.59;100.00
23643;BME280;11998;55.788;37.572;2023-02-15T04:32:57;99461.28;;;-1.52;100.00
23643;BME280;11998;55.788;37.572;2023-02-15T04:33:58;99477.59;;;-1.59;100.00
23643;BME280;11998;55.788;37.572;2023-02-15T04:34:58;99470.66;;;-1.58;100.00
23643;BME280;11998;55.788;37.572;2023-02-15T04:35:59;99468.19;;;-1.54;100.00
23643;BME280;11998;55.788;37.572;2023-02-15T04:37:00;99457.81;;;-1.52;100.00
23643;BME280;11998;55.788;37.572;2023-02-15T04:38:00;99471.53;;;-1.58;100.00
23643;BME280;11998;55.788;37.572;2023-02-15T04:39:01;99453.38;;;-1.58;100.00
23643;BME280;11998;55.788;37.572;2023-02-15T04:40:03;99463.41;;;-1.71;100.00
23643;BME280;11998;55.788;37.572;2023-02-15T04:41:03;99460.75;;;-1.73;100.00
23643;BME280;11998;55.788;37.572;2023-02-15T04:42:04;99453.97;;;-1.68;100.00
23643;BME280;11998;55.788;37.572;2023-02-15T04:43:05;99463.44;;;-1.70;100.00
23643;BME280;11998;55.788;37.572;2023-02-15T04:44:05;99474.66;;;-1.71;100.00
23643;BME280;11998;55.788;37.572;2023-02-15T04:45:06;99467.72;;;-1.72;100.00
23643;BME280;11998;55.788;37.572;2023-02-15T04:46:07;99470.34;;;-1.70;100.00
23643;BME280;11998;55.788;37.572;2023-02-15T04:47:07;99468.66;;;-1.68;100.00
23643;BME280;11998;55.788;37.572;2023-02-15T04:48:07;99474.06;;;-1.61;100.00
23643;BME280;11998;55.788;37.572;2023-02-15T04:49:08;99467.81;;;-1.67;100.00
23643;BME280;11998;55.788;37.572;2023-02-15T04:50:09;99458.97;;;-1.74;100.00
23643;BME280;11998;55.788;37.572;2023-02-15T04:51:10;99449.66;;;-1.67;100.00
23643;BME280;11998;55.788;37.572;2023-02-15T04:52:11;99459.97;;;-1.70;100.00
23643;BME280;11998;55.788;37.572;2023-02-15T04:53:11;99470.38;;;-1.69;100.00
23643;BME280;11998;55.788;37.572;2023-02-15T04:54:12;99468.72;;;-1.65;100.00
23643;BME280;11998;55.788;37.572;2023-02-15T04:55:13;99465.44;;;-1.60;100.00
23643;BME280;11998;55.788;37.572;2023-02-15T04:56:14;99462.41;;;-1.75;100.00
23643;BME280;11998;55.788;37.572;2023-02-15T04:57:15;99452.13;;;-1.72;100.00
23643;BME280;11998;55.788;37.572;2023-02-15T04:58:15;99478.09;;;-1.72;100.00
23643;BME280;11998;55.788;37.572;2023-02-15T04:59:16;99472.25;;;-1.63;100.00
23643;BME280;11998;55.788;37.572;2023-02-15T05:00:16;99463.41;;;-1.71;100.00
23643;BME280;11998;55.788;37.572;2023-02-15T05:01:17;99470.00;;;-1.83;100.00
23643;BME280;11998;55.788;37.572;2023-02-15T05:02:18;99468.34;;;-1.81;100.00
23643;BME280;11998;55.788;37.572;2023-02-15T05:03:18;99478.75;;;-1.79;100.00
23643;BME280;11998;55.788;37.572;2023-02-15T05:04:20;99476.34;;;-1.73;100.00
23643;BME280;11998;55.788;37.572;2023-02-15T05:05:20;99469.22;;;-1.80;100.00
23643;BME280;11998;55.788;37.572;2023-02-15T05:06:21;99473.56;;;-1.79;100.00
23643;BME280;11998;55.788;37.572;2023-02-15T05:07:21;99477.03;;;-1.79;100.00
23643;BME280;11998;55.788;37.572;2023-02-15T05:08:22;99479.72;;;-1.75;100.00
23643;BME280;11998;55.788;37.572;2023-02-15T05:09:22;99478.00;;;-1.75;100.00
23643;BME280;11998;55.788;37.572;2023-02-15T05:10:23;99472.97;;;-1.69;100.00
23643;BME280;11998;55.788;37.572;2023-02-15T05:11:23;99470.31;;;-1.72;100.00
23643;BME280;11998;55.788;37.572;2023-02-15T05:12:24;99482.47;;;-1.69;100.00
23643;BME280;11998;55.788;37.572;2023-02-15T05:13:24;99488.66;;;-1.64;100.00
23643;BME280;11998;55.788;37.572;2023-02-15T05:14:25;99487.75;;;-1.66;100.00
23643;BME280;11998;55.788;37.572;2023-02-15T05:15:25;99488.69;;;-1.63;100.00
23643;BME280;11998;55.788;37.572;2023-02-15T05:16:26;99488.69;;;-1.63;100.00
23643;BME280;11998;55.788;37.572;2023-02-15T05:17:28;99490.56;;;-1.59;100.00
23643;BME280;11998;55.788;37.572;2023-02-15T05:18:28;99488.16;;;-1.51;100.00
23643;BME280;11998;55.788;37.572;2023-02-15T05:19:29;99485.59;;;-1.50;100.00
23643;BME280;11998;55.788;37.572;2023-02-15T05:20:29;99483.75;;;-1.54;100.00
23643;BME280;11998;55.788;37.572;2023-02-15T05:21:30;99490.38;;;-1.65;100.00
23643;BME280;11998;55.788;37.572;2023-02-15T05:22:31;99468.28;;;-1.82;100.00
23643;BME280;11998;55.788;37.572;2023-02-15T05:23:32;99473.47;;;-1.82;100.00
23643;BME280;11998;55.788;37.572;2023-02-15T05:24:32;99477.75;;;-1.84;100.00
23643;BME280;11998;55.788;37.572;2023-02-15T05:25:51;99495.09;;;-1.83;100.00
23643;BME280;11998;55.788;37.572;2023-02-15T05:27:11;99489.97;;;-1.80;100.00
23643;BME280;11998;55.788;37.572;2023-02-15T05:28:30;99493.34;;;-1.84;100.00
23643;BME280;11998;55.788;37.572;2023-02-15T05:29:31;99478.47;;;-1.90;100.00
23643;BME280;11998;55.788;37.572;2023-02-15T05:30:31;99479.53;;;-1.83;100.00
23643;BME280;11998;55.788;37.572;2023-02-15T05:31:32;99489.91;;;-1.83;100.00
23643;BME280;11998;55.788;37.572;2023-02-15T05:32:33;99488.28;;;-1.78;100.00
23643;BME280;11998;55.788;37.572;2023-02-15T05:33:33;99488.38;;;-1.75;100.00
23643;BME280;11998;55.788;37.572;2023-02-15T05:34:34;99490.75;;;-1.84;100.00
23643;BME280;11998;55.788;37.572;2023-02-15T05:35:35;99493.34;;;-1.84;100.00
23643;BME280;11998;55.788;37.572;2023-02-15T05:36:35;99496.91;;;-1.79;100.00
23643;BME280;11998;55.788;37.572;2023-02-15T05:37:36;99497.09;;;-1.73;100.00
23643;BME280;11998;55.788;37.572;2023-02-15T05:38:37;99486.53;;;-1.79;100.00
23643;BME280;11998;55.788;37.572;2023-02-15T05:39:38;99494.41;;;-1.76;100.00
23643;BME280;11998;55.788;37.572;2023-02-15T05:40:38;99503.94;;;-1.75;100.00
23643;BME280;11998;55.788;37.572;2023-02-15T05:41:38;99498.69;;;-1.78;100.00
23643;BME280;11998;55.788;37.572;2023-02-15T05:42:39;99497.25;;;-1.67;100.00
23643;BME280;11998;55.788;37.572;2023-02-15T05:43:40;99485.97;;;-1.69;100.00
23643;BME280;11998;55.788;37.572;2023-02-15T05:44:41;99483.19;;;-1.75;100.00
23643;BME280;11998;55.788;37.572;2023-02-15T05:45:47;99483.78;;;-1.85;100.00
23643;BME280;11998;55.788;37.572;2023-02-15T05:46:48;99505.38;;;-1.86;100.00
23643;BME280;11998;55.788;37.572;2023-02-15T05:47:48;99510.75;;;-1.80;100.00
23643;BME280;11998;55.788;37.572;2023-02-15T05:48:49;99504.59;;;-1.84;100.00
23643;BME280;11998;55.788;37.572;2023-02-15T05:49:49;99507.38;;;-1.76;100.00
23643;BME280;11998;55.788;37.572;2023-02-15T05:51:01;99513.59;;;-1.71;100.00
23643;BME280;11998;55.788;37.572;2023-02-15T05:52:02;99502.63;;;-1.61;100.00
23643;BME280;11998;55.788;37.572;2023-02-15T05:53:03;99508.69;;;-1.60;100.00
23643;BME280;11998;55.788;37.572;2023-02-15T05:54:04;99505.34;;;-1.56;100.00
23643;BME280;11998;55.788;37.572;2023-02-15T05:55:05;99497.34;;;-1.64;100.00
23643;BME280;11998;55.788;37.572;2023-02-15T05:56:08;99499.19;;;-1.60;100.00